Terminal Aerodrome Forecast
Issued by NWS Sioux Falls, SD

Home | Current Version | Previous Version | Graphics & Text | Print | Product List | Glossary On
Versions: 1 2 3 4 5 6 7 8 9 10 11 12 13 14 15
000
FTUS43 KFSD 181123
TAFHON
TAF
KHON 181123Z 1812/1912 35008KT 1 1/2SM -SN OVC010
      TEMPO 1812/1815 3/4SM -SN
     FM181900 34011KT 3SM -SNRA OVC010
     FM182100 33013KT P6SM OVC008
     FM182300 34012KT P6SM OVC015
     FM190400 34005KT P6SM BKN035
     FM190700 32004KT P6SM BKN060=

USA.gov is the U.S. government's official web portal to all federal, state and local government web resources and services.